sensor_id;sensor_type;location;lat;lon;timestamp;pressure;altitude;pressure_sealevel;temperature;humidity
50394;BME280;36308;46.312;25.288;2023-02-17T00:00:10;96882.84;;;-2.57;60.97
50394;BME280;36308;46.312;25.288;2023-02-17T00:02:36;96894.53;;;-2.60;60.98
50394;BME280;36308;46.312;25.288;2023-02-17T00:05:03;96884.31;;;-2.63;61.30
50394;BME280;36308;46.312;25.288;2023-02-17T00:07:32;96883.78;;;-2.67;61.28
50394;BME280;36308;46.312;25.288;2023-02-17T00:09:58;96880.34;;;-2.67;61.25
50394;BME280;36308;46.312;25.288;2023-02-17T00:12:24;96876.03;;;-2.68;60.97
50394;BME280;36308;46.312;25.288;2023-02-17T00:14:50;96878.31;;;-2.73;61.14
50394;BME280;36308;46.312;25.288;2023-02-17T00:17:16;96870.88;;;-2.78;61.28
50394;BME280;36308;46.312;25.288;2023-02-17T00:19:41;96877.25;;;-2.80;61.07
50394;BME280;36308;46.312;25.288;2023-02-17T00:22:07;96882.38;;;-2.79;61.24
50394;BME280;36308;46.312;25.288;2023-02-17T00:24:35;96879.22;;;-2.82;61.09
50394;BME280;36308;46.312;25.288;2023-02-17T00:27:01;96882.03;;;-2.84;61.09
50394;BME280;36308;46.312;25.288;2023-02-17T00:29:26;96878.19;;;-2.90;61.02
50394;BME280;36308;46.312;25.288;2023-02-17T00:31:53;96880.16;;;-2.92;60.78
50394;BME280;36308;46.312;25.288;2023-02-17T00:34:18;96884.06;;;-2.96;60.85
50394;BME280;36308;46.312;25.288;2023-02-17T00:36:44;96878.13;;;-2.98;60.89
50394;BME280;36308;46.312;25.288;2023-02-17T00:39:12;96883.69;;;-3.01;60.82
50394;BME280;36308;46.312;25.288;2023-02-17T00:41:38;96880.00;;;-3.08;60.98
50394;BME280;36308;46.312;25.288;2023-02-17T00:44:04;96884.59;;;-3.10;60.88
50394;BME280;36308;46.312;25.288;2023-02-17T00:46:30;96880.31;;;-3.11;61.20
50394;BME280;36308;46.312;25.288;2023-02-17T00:48:56;96875.66;;;-3.17;61.04
50394;BME280;36308;46.312;25.288;2023-02-17T00:51:22;96875.66;;;-3.17;61.10
50394;BME280;36308;46.312;25.288;2023-02-17T00:53:48;96882.03;;;-3.20;61.31
50394;BME280;36308;46.312;25.288;2023-02-17T00:56:14;96872.66;;;-3.22;61.19
50394;BME280;36308;46.312;25.288;2023-02-17T00:58:40;96885.81;;;-3.22;61.35
50394;BME280;36308;46.312;25.288;2023-02-17T01:01:06;96879.03;;;-3.25;61.41
50394;BME280;36308;46.312;25.288;2023-02-17T01:03:32;96873.56;;;-3.32;61.52
50394;BME280;36308;46.312;25.288;2023-02-17T01:05:57;96863.94;;;-3.41;61.67
50394;BME280;36308;46.312;25.288;2023-02-17T01:08:24;96877.16;;;-3.33;61.56
50394;BME280;36308;46.312;25.288;2023-02-17T01:10:50;96877.97;;;-3.32;61.41
50394;BME280;36308;46.312;25.288;2023-02-17T01:13:17;96871.22;;;-3.35;61.56
50394;BME280;36308;46.312;25.288;2023-02-17T01:15:48;96863.94;;;-3.41;61.78
50394;BME280;36308;46.312;25.288;2023-02-17T01:18:16;96860.63;;;-3.43;61.81
50394;BME280;36308;46.312;25.288;2023-02-17T01:20:42;96865.06;;;-3.43;61.73
50394;BME280;36308;46.312;25.288;2023-02-17T01:23:10;96859.41;;;-3.49;61.68
50394;BME280;36308;46.312;25.288;2023-02-17T01:25:45;96854.81;;;-3.47;61.88
50394;BME280;36308;46.312;25.288;2023-02-17T01:28:16;96854.16;;;-3.49;61.85
50394;BME280;36308;46.312;25.288;2023-02-17T01:30:42;96849.22;;;-3.52;61.96
50394;BME280;36308;46.312;25.288;2023-02-17T01:33:08;96840.78;;;-3.55;61.81
50394;BME280;36308;46.312;25.288;2023-02-17T01:35:34;96841.09;;;-3.58;61.92
50394;BME280;36308;46.312;25.288;2023-02-17T01:37:59;96836.13;;;-3.61;61.92
50394;BME280;36308;46.312;25.288;2023-02-17T01:40:25;96847.50;;;-3.61;61.81
50394;BME280;36308;46.312;25.288;2023-02-17T01:42:50;96841.38;;;-3.61;61.91
50394;BME280;36308;46.312;25.288;2023-02-17T01:47:43;96844.47;;;-3.66;62.08
50394;BME280;36308;46.312;25.288;2023-02-17T01:50:09;96837.84;;;-3.70;61.92
50394;BME280;36308;46.312;25.288;2023-02-17T01:52:35;96837.03;;;-3.71;61.99
50394;BME280;36308;46.312;25.288;2023-02-17T01:55:07;96832.38;;;-3.77;61.86
50394;BME280;36308;46.312;25.288;2023-02-17T01:57:36;96840.09;;;-3.75;62.35
50394;BME280;36308;46.312;25.288;2023-02-17T02:00:07;96836.94;;;-3.79;62.18
50394;BME280;36308;46.312;25.288;2023-02-17T02:02:33;96837.09;;;-3.80;62.18
50394;BME280;36308;46.312;25.288;2023-02-17T02:04:59;96835.59;;;-3.83;61.96
50394;BME280;36308;46.312;25.288;2023-02-17T02:07:28;96833.91;;;-3.84;61.85
50394;BME280;36308;46.312;25.288;2023-02-17T02:09:56;96839.34;;;-3.86;62.06
50394;BME280;36308;46.312;25.288;2023-02-17T02:12:31;96830.56;;;-3.94;61.88
50394;BME280;36308;46.312;25.288;2023-02-17T02:15:07;96832.88;;;-3.91;62.18
50394;BME280;36308;46.312;25.288;2023-02-17T02:17:50;96839.09;;;-3.92;61.93
50394;BME280;36308;46.312;25.288;2023-02-17T02:34:33;96816.91;;;-4.08;62.14
50394;BME280;36308;46.312;25.288;2023-02-17T02:37:11;96810.31;;;-4.12;62.38
50394;BME280;36308;46.312;25.288;2023-02-17T02:39:40;96815.41;;;-4.10;62.18
50394;BME280;36308;46.312;25.288;2023-02-17T02:42:11;96816.53;;;-4.13;62.40
50394;BME280;36308;46.312;25.288;2023-02-17T02:44:38;96810.44;;;-4.13;62.42
50394;BME280;36308;46.312;25.288;2023-02-17T02:47:39;96814.19;;;-4.16;62.62
50394;BME280;36308;46.312;25.288;2023-02-17T02:49:50;96806.63;;;-4.19;62.76
50394;BME280;36308;46.312;25.288;2023-02-17T02:52:30;96803.59;;;-4.24;62.34
50394;BME280;36308;46.312;25.288;2023-02-17T03:08:00;96817.44;;;-4.32;63.01
50394;BME280;36308;46.312;25.288;2023-02-17T03:10:28;96804.53;;;-4.43;62.99
50394;BME280;36308;46.312;25.288;2023-02-17T03:12:54;96828.25;;;-4.35;62.73
50394;BME280;36308;46.312;25.288;2023-02-17T03:15:30;96831.00;;;-4.36;62.93
50394;BME280;36308;46.312;25.288;2023-02-17T03:17:57;96837.38;;;-4.39;62.98
50394;BME280;36308;46.312;25.288;2023-02-17T03:20:24;96837.53;;;-4.40;63.04
50394;BME280;36308;46.312;25.288;2023-02-17T03:22:50;96840.16;;;-4.40;63.00
50394;BME280;36308;46.312;25.288;2023-02-17T03:25:16;96850.66;;;-4.40;63.16
50394;BME280;36308;46.312;25.288;2023-02-17T03:27:42;96838.78;;;-4.44;63.24
50394;BME280;36308;46.312;25.288;2023-02-17T03:30:08;96838.78;;;-4.44;62.92
50394;BME280;36308;46.312;25.288;2023-02-17T03:32:34;96835.47;;;-4.47;63.12
50394;BME280;36308;46.312;25.288;2023-02-17T03:35:00;96837.28;;;-4.47;63.22
50394;BME280;36308;46.312;25.288;2023-02-17T03:37:26;96832.16;;;-4.49;63.24
50394;BME280;36308;46.312;25.288;2023-02-17T03:39:51;96830.53;;;-4.50;63.08
50394;BME280;36308;46.312;25.288;2023-02-17T03:42:17;96834.41;;;-4.54;63.39
50394;BME280;36308;46.312;25.288;2023-02-17T03:44:42;96840.22;;;-4.50;63.09
50394;BME280;36308;46.312;25.288;2023-02-17T03:47:08;96841.28;;;-4.53;63.03
50394;BME280;36308;46.312;25.288;2023-02-17T03:49:33;96815.50;;;-4.67;63.07
50394;BME280;36308;46.312;25.288;2023-02-17T03:51:59;96829.28;;;-4.55;63.19
50394;BME280;36308;46.312;25.288;2023-02-17T03:54:25;96827.78;;;-4.58;63.30
50394;BME280;36308;46.312;25.288;2023-02-17T03:56:51;96827.94;;;-4.59;63.29
50394;BME280;36308;46.312;25.288;2023-02-17T03:59:16;96830.56;;;-4.59;63.35
50394;BME280;36308;46.312;25.288;2023-02-17T04:01:42;96824.75;;;-4.63;63.21
50394;BME280;36308;46.312;25.288;2023-02-17T04:04:07;96830.31;;;-4.66;63.33
50394;BME280;36308;46.312;25.288;2023-02-17T04:06:33;96826.69;;;-4.65;63.46
50394;BME280;36308;46.312;25.288;2023-02-17T04:08:59;96821.19;;;-4.72;63.25
50394;BME280;36308;46.312;25.288;2023-02-17T04:11:24;96831.41;;;-4.69;63.37
50394;BME280;36308;46.312;25.288;2023-02-17T04:13:49;96821.63;;;-4.76;63.16
50394;BME280;36308;46.312;25.288;2023-02-17T04:16:15;96830.88;;;-4.72;63.45
50394;BME280;36308;46.312;25.288;2023-02-17T04:18:41;96825.06;;;-4.76;63.37
50394;BME280;36308;46.312;25.288;2023-02-17T04:21:07;96821.63;;;-4.76;63.40
50394;BME280;36308;46.312;25.288;2023-02-17T04:23:34;96827.84;;;-4.77;63.44
50394;BME280;36308;46.312;25.288;2023-02-17T04:26:00;96827.16;;;-4.79;63.74
50394;BME280;36308;46.312;25.288;2023-02-17T04:28:25;96809.94;;;-4.92;63.59
50394;BME280;36308;46.312;25.288;2023-02-17T04:30:51;96816.56;;;-4.88;63.42
50394;BME280;36308;46.312;25.288;2023-02-17T04:33:17;96831.31;;;-4.87;63.38
50394;BME280;36308;46.312;25.288;2023-02-17T04:35:43;96824.00;;;-4.93;63.32
50394;BME280;36308;46.312;25.288;2023-02-17T04:38:09;96834.25;;;-4.90;63.63
50394;BME280;36308;46.312;25.288;2023-02-17T04:40:35;96821.97;;;-4.99;63.34
50394;BME280;36308;46.312;25.288;2023-02-17T04:43:01;96833.00;;;-4.95;63.49
50394;BME280;36308;46.312;25.288;2023-02-17T04:45:27;96827.88;;;-4.97;63.51
50394;BME280;36308;46.312;25.288;2023-02-17T04:47:53;96828.72;;;-4.96;63.59
50394;BME280;36308;46.312;25.288;2023-02-17T04:50:18;96820.44;;;-5.01;63.60
50394;BME280;36308;46.312;25.288;2023-02-17T04:52:44;96834.94;;;-4.97;63.66
50394;BME280;36308;46.312;25.288;2023-02-17T04:55:09;96837.00;;;-5.01;63.65
50394;BME280;36308;46.312;25.288;2023-02-17T04:57:35;96843.91;;;-5.00;63.50
50394;BME280;36308;46.312;25.288;2023-02-17T05:00:02;96846.53;;;-5.00;63.51
50394;BME280;36308;46.312;25.288;2023-02-17T05:02:28;96839.75;;;-5.02;63.63
50394;BME280;36308;46.312;25.288;2023-02-17T05:04:54;96852.75;;;-5.01;63.82
50394;BME280;36308;46.312;25.288;2023-02-17T05:07:20;96849.03;;;-5.08;63.63
50394;BME280;36308;46.312;25.288;2023-02-17T05:09:46;96846.25;;;-5.07;63.67
50394;BME280;36308;46.312;25.288;2023-02-17T05:12:11;96852.59;;;-5.09;63.68
50394;BME280;36308;46.312;25.288;2023-02-17T05:14:37;96847.66;;;-5.12;63.69
50394;BME280;36308;46.312;25.288;2023-02-17T05:17:03;96859.09;;;-5.13;63.63
50394;BME280;36308;46.312;25.288;2023-02-17T05:19:28;96866.56;;;-5.18;63.69
50394;BME280;36308;46.312;25.288;2023-02-17T05:21:54;96859.94;;;-5.22;63.93
50394;BME280;36308;46.312;25.288;2023-02-17T05:24:19;96861.88;;;-5.24;63.71
50394;BME280;36308;46.312;25.288;2023-02-17T05:26:45;96865.44;;;-5.25;63.66
50394;BME280;36308;46.312;25.288;2023-02-17T05:29:10;96872.19;;;-5.23;63.98
50394;BME280;36308;46.312;25.288;2023-02-17T05:31:36;96863.50;;;-5.23;63.82
50394;BME280;36308;46.312;25.288;2023-02-17T05:34:01;96872.06;;;-5.21;64.17
50394;BME280;36308;46.312;25.288;2023-02-17T05:36:27;96868.75;;;-5.23;63.81
50394;BME280;36308;46.312;25.288;2023-02-17T05:38:52;96857.44;;;-5.24;64.17
50394;BME280;36308;46.312;25.288;2023-02-17T05:41:19;96867.13;;;-5.24;64.27
50394;BME280;36308;46.312;25.288;2023-02-17T05:43:45;96872.06;;;-5.21;64.32
50394;BME280;36308;46.312;25.288;2023-02-17T05:46:11;96867.13;;;-5.24;64.58
50394;BME280;36308;46.312;25.288;2023-02-17T05:48:36;96860.91;;;-5.23;64.42
50394;BME280;36308;46.312;25.288;2023-02-17T05:51:02;96861.59;;;-5.21;64.40
50394;BME280;36308;46.312;25.288;2023-02-17T05:53:28;96856.06;;;-5.28;64.42
50394;BME280;36308;46.312;25.288;2023-02-17T05:55:53;96868.22;;;-5.17;64.14
50394;BME280;36308;46.312;25.288;2023-02-17T05:58:19;96874.28;;;-5.17;64.51
50394;BME280;36308;46.312;25.288;2023-02-17T06:00:44;96876.75;;;-5.15;64.38
50394;BME280;36308;46.312;25.288;2023-02-17T06:03:11;96875.38;;;-5.19;64.52
50394;BME280;36308;46.312;25.288;2023-02-17T06:05:36;96871.81;;;-5.18;64.30
50394;BME280;36308;46.312;25.288;2023-02-17T06:08:02;96883.00;;;-5.16;64.25
50394;BME280;36308;46.312;25.288;2023-02-17T06:10:28;96889.59;;;-5.12;64.52
50394;BME280;36308;46.312;25.288;2023-02-17T06:12:53;96891.25;;;-5.11;64.46
50394;BME280;36308;46.312;25.288;2023-02-17T06:15:19;96874.56;;;-5.20;64.36
50394;BME280;36308;46.312;25.288;2023-02-17T06:17:44;96888.75;;;-5.13;64.39
50394;BME280;36308;46.312;25.288;2023-02-17T06:20:10;96889.44;;;-5.11;64.83
50394;BME280;36308;46.312;25.288;2023-02-17T06:22:36;96874.69;;;-5.21;64.57
50394;BME280;36308;46.312;25.288;2023-02-17T06:25:01;96890.00;;;-5.07;64.54
50394;BME280;36308;46.312;25.288;2023-02-17T06:27:27;96886.16;;;-5.03;64.84
50394;BME280;36308;46.312;25.288;2023-02-17T06:29:52;96888.50;;;-5.00;64.72
50394;BME280;36308;46.312;25.288;2023-02-17T06:32:18;96894.44;;;-4.98;64.60
50394;BME280;36308;46.312;25.288;2023-02-17T06:34:43;96897.59;;;-4.94;64.59
50394;BME280;36308;46.312;25.288;2023-02-17T06:37:09;96891.94;;;-4.90;64.75
50394;BME280;36308;46.312;25.288;2023-02-17T06:39:34;96899.53;;;-4.87;64.94
50394;BME280;36308;46.312;25.288;2023-02-17T06:42:00;96864.91;;;-5.00;65.23
50394;BME280;36308;46.312;25.288;2023-02-17T06:44:25;96899.66;;;-4.78;65.19
50394;BME280;36308;46.312;25.288;2023-02-17T06:46:51;96901.84;;;-4.74;65.34
50394;BME280;36308;46.312;25.288;2023-02-17T06:49:17;96899.91;;;-4.72;65.46
50394;BME280;36308;46.312;25.288;2023-02-17T06:51:42;96908.72;;;-4.63;65.34
50394;BME280;36308;46.312;25.288;2023-02-17T06:54:08;96905.84;;;-4.60;65.62
50394;BME280;36308;46.312;25.288;2023-02-17T06:56:33;96902.66;;;-4.54;65.60
50394;BME280;36308;46.312;25.288;2023-02-17T06:59:00;96908.16;;;-4.47;65.75
50394;BME280;36308;46.312;25.288;2023-02-17T07:01:26;96910.63;;;-4.45;65.75
50394;BME280;36308;46.312;25.288;2023-02-17T07:03:53;96903.69;;;-4.37;65.95
50394;BME280;36308;46.312;25.288;2023-02-17T07:06:19;96906.19;;;-4.35;65.68
50394;BME280;36308;46.312;25.288;2023-02-17T07:08:45;96898.44;;;-4.27;65.68
50394;BME280;36308;46.312;25.288;2023-02-17T07:11:12;96911.66;;;-4.19;65.99
50394;BME280;36308;46.312;25.288;2023-02-17T07:13:38;96904.16;;;-4.14;66.26
50394;BME280;36308;46.312;25.288;2023-02-17T07:16:06;96900.28;;;-4.10;66.09
50394;BME280;36308;46.312;25.288;2023-02-17T07:18:31;96907.31;;;-4.00;66.14
50394;BME280;36308;46.312;25.288;2023-02-17T07:20:57;96913.75;;;-3.95;65.93
50394;BME280;36308;46.312;25.288;2023-02-17T07:23:23;96906.13;;;-3.88;65.97
50394;BME280;36308;46.312;25.288;2023-02-17T07:25:48;96908.16;;;-3.82;65.89
50394;BME280;36308;46.312;25.288;2023-02-17T07:28:14;96913.81;;;-3.77;66.15
50394;BME280;36308;46.312;25.288;2023-02-17T07:30:40;96921.50;;;-3.66;66.22
50394;BME280;36308;46.312;25.288;2023-02-17T07:33:06;96926.84;;;-3.57;66.29
50394;BME280;36308;46.312;25.288;2023-02-17T07:35:33;96923.50;;;-3.50;66.06
50394;BME280;36308;46.312;25.288;2023-02-17T07:37:59;96916.81;;;-3.44;66.60
50394;BME280;36308;46.312;25.288;2023-02-17T07:40:27;96929.75;;;-3.33;66.35
50394;BME280;36308;46.312;25.288;2023-02-17T07:42:52;96922.25;;;-3.28;65.94
50394;BME280;36308;46.312;25.288;2023-02-17T07:45:18;96921.34;;;-3.18;66.13
50394;BME280;36308;46.312;25.288;2023-02-17T07:47:44;96915.88;;;-3.07;66.19
50394;BME280;36308;46.312;25.288;2023-02-17T07:50:10;96899.41;;;-3.09;66.00
50394;BME280;36308;46.312;25.288;2023-02-17T07:52:36;96923.88;;;-2.91;66.11
50394;BME280;36308;46.312;25.288;2023-02-17T07:55:02;96923.16;;;-2.83;66.12
50394;BME280;36308;46.312;25.288;2023-02-17T07:57:28;96930.28;;;-2.75;65.96
50394;BME280;36308;46.312;25.288;2023-02-17T07:59:54;96928.69;;;-2.68;66.04
50394;BME280;36308;46.312;25.288;2023-02-17T08:02:19;96921.00;;;-2.61;65.50
50394;BME280;36308;46.312;25.288;2023-02-17T08:04:45;96924.97;;;-2.57;65.42
50394;BME280;36308;46.312;25.288;2023-02-17T08:07:10;96917.47;;;-2.52;65.70
50394;BME280;36308;46.312;25.288;2023-02-17T08:09:36;96922.94;;;-2.46;65.53
50394;BME280;36308;46.312;25.288;2023-02-17T08:12:20;96920.69;;;-2.40;65.31
50394;BME280;36308;46.312;25.288;2023-02-17T08:15:05;96923.38;;;-2.32;65.46
50394;BME280;36308;46.312;25.288;2023-02-17T08:17:32;96921.91;;;-2.27;65.64
50394;BME280;36308;46.312;25.288;2023-02-17T08:19:58;96913.84;;;-2.25;65.66
50394;BME280;36308;46.312;25.288;2023-02-17T08:22:23;96925.09;;;-2.15;65.69
50394;BME280;36308;46.312;25.288;2023-02-17T08:24:49;96912.28;;;-2.10;65.57
50394;BME280;36308;46.312;25.288;2023-02-17T08:27:15;96916.63;;;-2.00;65.85
50394;BME280;36308;46.312;25.288;2023-02-17T08:29:41;96911.53;;;-1.94;65.40
50394;BME280;36308;46.312;25.288;2023-02-17T08:32:07;96911.44;;;-1.84;65.95
50394;BME280;36308;46.312;25.288;2023-02-17T08:34:33;96892.31;;;-1.86;65.83
50394;BME280;36308;46.312;25.288;2023-02-17T08:37:01;96905.59;;;-1.61;65.83
50394;BME280;36308;46.312;25.288;2023-02-17T08:39:28;96907.41;;;-1.54;65.85
50394;BME280;36308;46.312;25.288;2023-02-17T08:41:53;96900.38;;;-1.45;65.85
50394;BME280;36308;46.312;25.288;2023-02-17T08:44:19;96900.88;;;-1.33;65.43
50394;BME280;36308;46.312;25.288;2023-02-17T08:46:47;96907.84;;;-1.24;65.43
50394;BME280;36308;46.312;25.288;2023-02-17T08:49:15;96920.19;;;-1.16;65.00
50394;BME280;36308;46.312;25.288;2023-02-17T08:51:41;96915.28;;;-1.11;65.44
50394;BME280;36308;46.312;25.288;2023-02-17T08:54:07;96920.06;;;-1.07;65.05
50394;BME280;36308;46.312;25.288;2023-02-17T08:56:35;96918.59;;;-1.01;65.18
50394;BME280;36308;46.312;25.288;2023-02-17T08:59:01;96923.53;;;-0.98;64.79
50394;BME280;36308;46.312;25.288;2023-02-17T09:01:27;96915.31;;;-0.95;64.48
50394;BME280;36308;46.312;25.288;2023-02-17T09:03:53;96913.31;;;-0.93;64.53
50394;BME280;36308;46.312;25.288;2023-02-17T09:06:20;96908.72;;;-0.91;64.78
50394;BME280;36308;46.312;25.288;2023-02-17T09:08:46;96913.66;;;-0.88;65.02
50394;BME280;36308;46.312;25.288;2023-02-17T09:11:13;96916.28;;;-0.79;64.89
50394;BME280;36308;46.312;25.288;2023-02-17T09:13:42;96916.44;;;-0.73;64.83
50394;BME280;36308;46.312;25.288;2023-02-17T09:16:07;96907.72;;;-0.65;65.23
50394;BME280;36308;46.312;25.288;2023-02-17T09:18:33;96916.78;;;-0.51;65.39
50394;BME280;36308;46.312;25.288;2023-02-17T09:21:07;96914.81;;;-0.41;65.13
50394;BME280;36308;46.312;25.288;2023-02-17T09:23:33;96922.22;;;-0.28;65.10
50394;BME280;36308;46.312;25.288;2023-02-17T09:26:09;96918.56;;;-0.19;64.82
50394;BME280;36308;46.312;25.288;2023-02-17T09:28:36;96907.50;;;-0.14;64.43
50394;BME280;36308;46.312;25.288;2023-02-17T09:33:37;96902.19;;;-0.06;64.18
50394;BME280;36308;46.312;25.288;2023-02-17T09:36:05;96912.91;;;0.01;64.24
50394;BME280;36308;46.312;25.288;2023-02-17T09:38:31;96909.91;;;0.04;64.00
50394;BME280;36308;46.312;25.288;2023-02-17T09:41:03;96916.34;;;0.09;64.47
50394;BME280;36308;46.312;25.288;2023-02-17T09:43:33;96912.22;;;0.15;64.34
50394;BME280;36308;46.312;25.288;2023-02-17T09:46:04;96904.28;;;0.15;64.40
50394;BME280;36308;46.312;25.288;2023-02-17T09:48:32;96913.81;;;0.24;64.31
50394;BME280;36308;46.312;25.288;2023-02-17T09:57:36;96908.72;;;0.54;64.46
50394;BME280;36308;46.312;25.288;2023-02-17T10:00:16;96902.75;;;0.60;64.40
50394;BME280;36308;46.312;25.288;2023-02-17T10:03:00;96910.63;;;0.68;64.48
50394;BME280;36308;46.312;25.288;2023-02-17T10:05:34;96902.00;;;0.74;63.93
50394;BME280;36308;46.312;25.288;2023-02-17T10:08:16;96906.28;;;0.84;63.79
50394;BME280;36308;46.312;25.288;2023-02-17T10:10:53;96900.06;;;0.91;64.03
50394;BME280;36308;46.312;25.288;2023-02-17T10:13:22;96898.66;;;1.04;64.09
50394;BME280;36308;46.312;25.288;2023-02-17T10:15:52;96906.41;;;1.13;64.03
50394;BME280;36308;46.312;25.288;2023-02-17T10:18:34;96903.03;;;1.19;64.14
50394;BME280;36308;46.312;25.288;2023-02-17T10:21:15;96885.78;;;1.24;63.73
50394;BME280;36308;46.312;25.288;2023-02-17T10:23:46;96900.25;;;1.36;64.66
50394;BME280;36308;46.312;25.288;2023-02-17T10:28:52;96879.47;;;1.48;64.70
50394;BME280;36308;46.312;25.288;2023-02-17T10:34:04;96877.66;;;1.63;64.39
50394;BME280;36308;46.312;25.288;2023-02-17T10:37:26;96868.44;;;1.74;63.97
50394;BME280;36308;46.312;25.288;2023-02-17T10:39:51;96861.03;;;1.84;63.97
50394;BME280;36308;46.312;25.288;2023-02-17T10:44:53;96855.00;;;2.05;64.41
50394;BME280;36308;46.312;25.288;2023-02-17T10:47:22;96853.75;;;2.16;64.43
50394;BME280;36308;46.312;25.288;2023-02-17T10:49:52;96854.16;;;2.34;64.16
50394;BME280;36308;46.312;25.288;2023-02-17T10:52:26;96855.44;;;2.53;64.79
50394;BME280;36308;46.312;25.288;2023-02-17T10:55:02;96842.00;;;2.76;64.43
50394;BME280;36308;46.312;25.288;2023-02-17T10:57:34;96838.81;;;3.09;64.85
50394;BME280;36308;46.312;25.288;2023-02-17T11:00:06;96836.03;;;3.39;64.95
50394;BME280;36308;46.312;25.288;2023-02-17T11:02:42;96840.91;;;3.63;64.14
50394;BME280;36308;46.312;25.288;2023-02-17T11:05:20;96828.78;;;3.89;63.27
50394;BME280;36308;46.312;25.288;2023-02-17T11:07:46;96827.53;;;4.20;62.93
50394;BME280;36308;46.312;25.288;2023-02-17T11:10:21;96839.94;;;4.48;62.84
50394;BME280;36308;46.312;25.288;2023-02-17T11:12:48;96827.72;;;4.73;62.41
50394;BME280;36308;46.312;25.288;2023-02-17T11:15:19;96825.53;;;4.97;61.98
50394;BME280;36308;46.312;25.288;2023-02-17T11:17:46;96815.09;;;5.22;61.61
50394;BME280;36308;46.312;25.288;2023-02-17T11:22:40;96809.31;;;5.72;61.02
50394;BME280;36308;46.312;25.288;2023-02-17T11:25:23;96817.72;;;5.95;60.33
50394;BME280;36308;46.312;25.288;2023-02-17T11:27:55;96820.53;;;6.14;59.57
50394;BME280;36308;46.312;25.288;2023-02-17T11:30:21;96817.63;;;6.35;59.11
50394;BME280;36308;46.312;25.288;2023-02-17T11:32:48;96825.16;;;6.52;58.62
50394;BME280;36308;46.312;25.288;2023-02-17T11:38:23;96819.19;;;6.88;57.92
50394;BME280;36308;46.312;25.288;2023-02-17T11:40:59;96810.66;;;7.04;57.46
50394;BME280;36308;46.312;25.288;2023-02-17T11:43:26;96813.63;;;7.21;57.56
50394;BME280;36308;46.312;25.288;2023-02-17T11:46:21;96799.94;;;7.36;56.06
50394;BME280;36308;46.312;25.288;2023-02-17T11:51:58;96792.34;;;7.58;54.93
50394;BME280;36308;46.312;25.288;2023-02-17T12:00:21;96782.59;;;7.89;53.25
50394;BME280;36308;46.312;25.288;2023-02-17T12:05:25;96771.94;;;8.01;52.63
50394;BME280;36308;46.312;25.288;2023-02-17T12:08:22;96777.66;;;8.04;51.97
50394;BME280;36308;46.312;25.288;2023-02-17T12:10:58;96777.84;;;8.09;52.16
50394;BME280;36308;46.312;25.288;2023-02-17T12:24:34;96759.53;;;8.43;52.52
50394;BME280;36308;46.312;25.288;2023-02-17T12:27:11;96762.47;;;8.54;52.54
50394;BME280;36308;46.312;25.288;2023-02-17T12:34:54;96750.94;;;8.83;51.22
50394;BME280;36308;46.312;25.288;2023-02-17T12:37:27;96760.19;;;8.99;50.74
50394;BME280;36308;46.312;25.288;2023-02-17T12:40:14;96749.72;;;9.09;50.13
50394;BME280;36308;46.312;25.288;2023-02-17T12:42:44;96751.25;;;9.17;50.17
50394;BME280;36308;46.312;25.288;2023-02-17T12:45:20;96746.38;;;9.26;49.79
50394;BME280;36308;46.312;25.288;2023-02-17T12:50:30;96745.19;;;9.34;49.83
50394;BME280;36308;46.312;25.288;2023-02-17T12:53:01;96734.94;;;9.30;49.20
50394;BME280;36308;46.312;25.288;2023-02-17T12:55:39;96756.63;;;9.41;50.04
50394;BME280;36308;46.312;25.288;2023-02-17T12:58:14;96752.88;;;9.42;49.63
50394;BME280;36308;46.312;25.288;2023-02-17T13:00:54;96751.28;;;9.41;49.89
50394;BME280;36308;46.312;25.288;2023-02-17T13:03:22;96745.31;;;9.39;48.87
50394;BME280;36308;46.312;25.288;2023-02-17T13:05:57;96747.41;;;9.25;48.21
50394;BME280;36308;46.312;25.288;2023-02-17T13:08:32;96743.88;;;9.01;48.15
50394;BME280;36308;46.312;25.288;2023-02-17T13:11:03;96726.41;;;8.68;48.41
50394;BME280;36308;46.312;25.288;2023-02-17T13:13:31;96738.63;;;8.64;48.75
50394;BME280;36308;46.312;25.288;2023-02-17T13:16:10;96743.56;;;8.48;48.77
50394;BME280;36308;46.312;25.288;2023-02-17T13:18:39;96737.50;;;8.41;50.25
50394;BME280;36308;46.312;25.288;2023-02-17T13:21:25;96736.69;;;8.41;50.41
50394;BME280;36308;46.312;25.288;2023-02-17T13:24:13;96735.22;;;8.38;50.01
50394;BME280;36308;46.312;25.288;2023-02-17T13:26:42;96735.00;;;8.40;49.95
50394;BME280;36308;46.312;25.288;2023-02-17T13:32:05;96731.44;;;8.27;49.50
50394;BME280;36308;46.312;25.288;2023-02-17T13:34:41;96729.44;;;8.23;50.05
50394;BME280;36308;46.312;25.288;2023-02-17T13:42:56;96722.50;;;8.03;50.35
50394;BME280;36308;46.312;25.288;2023-02-17T13:45:39;96724.56;;;8.01;50.42
50394;BME280;36308;46.312;25.288;2023-02-17T13:48:30;96717.06;;;7.92;49.90
50394;BME280;36308;46.312;25.288;2023-02-17T13:51:06;96710.44;;;7.76;50.35
50394;BME280;36308;46.312;25.288;2023-02-17T13:53:38;96721.72;;;7.78;50.25
50394;BME280;36308;46.312;25.288;2023-02-17T13:56:30;96716.06;;;7.67;50.94
50394;BME280;36308;46.312;25.288;2023-02-17T13:59:10;96706.13;;;7.56;51.01
50394;BME280;36308;46.312;25.288;2023-02-17T14:01:39;96711.47;;;7.56;50.83
50394;BME280;36308;46.312;25.288;2023-02-17T14:04:17;96709.28;;;7.46;51.00
50394;BME280;36308;46.312;25.288;2023-02-17T14:06:44;96711.81;;;7.41;51.07
50394;BME280;36308;46.312;25.288;2023-02-17T14:11:56;96710.53;;;7.25;51.32
50394;BME280;36308;46.312;25.288;2023-02-17T14:14:27;96700.56;;;7.14;51.00
50394;BME280;36308;46.312;25.288;2023-02-17T14:17:11;96712.56;;;7.05;51.42
50394;BME280;36308;46.312;25.288;2023-02-17T14:19:45;96711.19;;;6.96;51.38
50394;BME280;36308;46.312;25.288;2023-02-17T14:22:40;96707.78;;;6.82;51.84
50394;BME280;36308;46.312;25.288;2023-02-17T14:25:12;96702.50;;;6.75;52.18
50394;BME280;36308;46.312;25.288;2023-02-17T14:27:46;96700.09;;;6.67;52.50
50394;BME280;36308;46.312;25.288;2023-02-17T14:30:34;96699.31;;;6.60;52.64
50394;BME280;36308;46.312;25.288;2023-02-17T14:38:33;96707.06;;;6.36;53.31
50394;BME280;36308;46.312;25.288;2023-02-17T14:41:00;96703.19;;;6.32;53.39